Time;durP1;ratioP1;P1;durP2;ratioP2;P2;SDS_P1;SDS_P2;PMS_P1;PMS_P2;Temp;Humidity;BMP_temperature;BMP_pressure;BME280_temperature;BME280_humidity;BME280_pressure;Samples;Min_cycle;Max_cycle;Signal;HPM_P1;HPM_P2
2023/03/24 00:00:34;;;;;;;2.13;1.07;;;;;;;;;;5003231;28;82662;-62
2023/03/24 00:03:02;;;;;;;0.97;0.90;;;;;;;;;;5004582;28;82002;-62
2023/03/24 00:05:31;;;;;;;2.30;1.40;;;;;;;;;;5003652;28;82581;-62
2023/03/24 00:08:01;;;;;;;1.27;1.17;;;;;;;;;;5003212;28;81973;-62
2023/03/24 00:10:33;;;;;;;2.10;0.93;;;;;;;;;;5004587;28;82775;-62
2023/03/24 00:13:02;;;;;;;2.37;1.10;;;;;;;;;;5003261;28;83453;-62
2023/03/24 00:15:30;;;;;;;2.27;1.40;;;;;;;;;;5003175;28;82786;-62
2023/03/24 00:17:58;;;;;;;4.27;1.17;;;;;;;;;;5002648;28;82089;-63
2023/03/24 00:20:31;;;;;;;1.30;1.07;;;;;;;;;;5005017;28;83658;-62
2023/03/24 00:23:00;;;;;;;2.50;1.57;;;;;;;;;;5007168;28;84113;-62
2023/03/24 00:25:32;;;;;;;1.30;1.13;;;;;;;;;;5002956;28;84771;-62
2023/03/24 00:28:01;;;;;;;2.37;1.60;;;;;;;;;;5004076;28;82102;-62
2023/03/24 00:30:30;;;;;;;1.60;1.23;;;;;;;;;;5000311;28;84011;-62
2023/03/24 00:33:00;;;;;;;1.27;1.17;;;;;;;;;;5003069;28;83664;-62
2023/03/24 00:35:29;;;;;;;4.23;1.20;;;;;;;;;;5003868;28;83612;-61
2023/03/24 00:37:57;;;;;;;3.83;1.00;;;;;;;;;;5004245;28;81984;-60
2023/03/24 00:40:26;;;;;;;2.13;1.20;;;;;;;;;;5004611;28;83808;-61
2023/03/24 00:42:58;;;;;;;1.40;1.30;;;;;;;;;;5008807;28;82981;-60
2023/03/24 00:45:28;;;;;;;2.80;0.87;;;;;;;;;;5001700;28;83702;-59
2023/03/24 00:47:58;;;;;;;4.07;1.20;;;;;;;;;;5003620;28;82905;-60
2023/03/24 00:50:26;;;;;;;1.03;0.90;;;;;;;;;;5003514;28;82757;-60
2023/03/24 00:52:55;;;;;;;2.13;1.47;;;;;;;;;;5004220;28;83020;-60
2023/03/24 00:55:27;;;;;;;1.47;1.03;;;;;;;;;;5001863;28;82140;-60
2023/03/24 00:57:59;;;;;;;1.60;1.17;;;;;;;;;;5013884;28;82396;-60
2023/03/24 01:00:28;;;;;;;1.00;1.00;;;;;;;;;;5001959;28;84117;-60
2023/03/24 01:02:57;;;;;;;2.10;1.20;;;;;;;;;;5004554;28;82837;-60
2023/03/24 01:05:26;;;;;;;1.53;1.00;;;;;;;;;;5004999;28;82970;-59
2023/03/24 01:07:56;;;;;;;1.20;1.10;;;;;;;;;;5003950;28;81981;-60
2023/03/24 01:10:25;;;;;;;2.23;1.27;;;;;;;;;;5003167;28;82546;-60
2023/03/24 01:12:54;;;;;;;0.87;0.80;;;;;;;;;;5003250;28;85270;-60
2023/03/24 01:15:25;;;;;;;1.73;1.43;;;;;;;;;;5016705;28;83663;-59
2023/03/24 01:17:54;;;;;;;2.77;1.00;;;;;;;;;;5003681;28;83182;-60
2023/03/24 01:20:23;;;;;;;1.37;1.23;;;;;;;;;;5001985;28;83933;-60
2023/03/24 01:22:51;;;;;;;1.23;1.13;;;;;;;;;;5003546;28;82027;-59
2023/03/24 01:25:20;;;;;;;3.17;1.40;;;;;;;;;;5003545;28;83246;-60
2023/03/24 01:27:48;;;;;;;1.37;1.10;;;;;;;;;;4998056;28;82072;-60
2023/03/24 01:30:17;;;;;;;2.03;1.30;;;;;;;;;;5003122;28;83807;-60
2023/03/24 01:32:47;;;;;;;2.77;1.70;;;;;;;;;;5002543;28;84034;-60
2023/03/24 01:35:16;;;;;;;2.87;1.50;;;;;;;;;;5003165;28;83897;-60
2023/03/24 01:37:44;;;;;;;2.13;1.47;;;;;;;;;;5005844;28;82840;-60
2023/03/24 01:40:15;;;;;;;2.70;1.57;;;;;;;;;;4998959;28;82132;-60
2023/03/24 01:42:43;;;;;;;1.60;1.50;;;;;;;;;;5007380;28;84150;-60
2023/03/24 01:45:36;;;;;;;2.03;1.60;;;;;;;;;;5002862;28;82725;-59
2023/03/24 01:48:08;;;;;;;3.93;1.43;;;;;;;;;;4989309;28;82038;-60
2023/03/24 01:50:37;;;;;;;1.40;1.27;;;;;;;;;;5003849;28;82756;-60
2023/03/24 01:53:06;;;;;;;2.83;1.57;;;;;;;;;;5010132;28;83101;-60
2023/03/24 01:55:34;;;;;;;3.53;1.20;;;;;;;;;;5003006;28;83692;-60
2023/03/24 01:58:05;;;;;;;1.27;1.13;;;;;;;;;;5003391;28;82361;-60
2023/03/24 02:00:36;;;;;;;2.67;1.57;;;;;;;;;;5001904;28;82887;-60
2023/03/24 02:03:08;;;;;;;1.63;1.37;;;;;;;;;;5005008;28;83814;-60
2023/03/24 02:05:37;;;;;;;1.13;0.87;;;;;;;;;;4999629;28;83682;-60
2023/03/24 02:08:07;;;;;;;2.60;1.23;;;;;;;;;;5022048;28;81924;-60
2023/03/24 02:10:37;;;;;;;1.47;1.10;;;;;;;;;;5012050;28;82820;-60
2023/03/24 02:13:05;;;;;;;1.20;0.70;;;;;;;;;;5002296;28;84228;-60
2023/03/24 02:15:34;;;;;;;1.00;0.63;;;;;;;;;;5001936;28;83248;-60
2023/03/24 02:18:04;;;;;;;0.80;0.80;;;;;;;;;;5002694;28;81995;-60
2023/03/24 02:20:43;;;;;;;2.10;1.00;;;;;;;;;;4998837;28;83370;-61
2023/03/24 02:23:20;;;;;;;2.83;0.90;;;;;;;;;;5003087;28;82079;-61
2023/03/24 02:26:03;;;;;;;1.13;0.70;;;;;;;;;;5003169;28;82709;-61
2023/03/24 02:28:35;;;;;;;0.70;0.70;;;;;;;;;;5002591;28;82853;-61
2023/03/24 02:31:07;;;;;;;2.37;0.80;;;;;;;;;;5002981;28;84086;-61
2023/03/24 02:33:53;;;;;;;2.00;1.07;;;;;;;;;;5002683;28;84212;-61
2023/03/24 02:36:32;;;;;;;3.80;0.63;;;;;;;;;;4992673;28;83605;-61
2023/03/24 02:39:31;;;;;;;0.87;0.87;;;;;;;;;;5002457;28;81923;-61
2023/03/24 02:42:02;;;;;;;0.90;0.70;;;;;;;;;;5002356;28;83140;-61
2023/03/24 02:44:36;;;;;;;1.20;0.90;;;;;;;;;;5002782;28;84038;-61
2023/03/24 02:47:06;;;;;;;1.07;0.97;;;;;;;;;;5002488;28;82609;-61
2023/03/24 02:49:36;;;;;;;0.70;0.70;;;;;;;;;;5005073;28;81789;-61
2023/03/24 02:52:05;;;;;;;4.10;0.80;;;;;;;;;;5005612;28;83804;-61
2023/03/24 02:54:36;;;;;;;2.03;1.07;;;;;;;;;;5005550;28;83977;-62
2023/03/24 02:57:06;;;;;;;0.60;0.50;;;;;;;;;;5004923;28;83451;-61
2023/03/24 02:59:36;;;;;;;2.10;0.57;;;;;;;;;;5022907;28;82015;-61
2023/03/24 03:02:05;;;;;;;1.83;0.83;;;;;;;;;;5005058;28;84036;-61
2023/03/24 03:04:34;;;;;;;1.13;0.63;;;;;;;;;;5012632;28;83703;-61
2023/03/24 03:07:05;;;;;;;2.53;1.20;;;;;;;;;;5002136;28;82726;-61
2023/03/24 03:09:33;;;;;;;0.90;0.80;;;;;;;;;;5005459;28;81998;-61
2023/03/24 03:12:02;;;;;;;2.10;0.60;;;;;;;;;;5005864;28;83076;-61
2023/03/24 03:14:33;;;;;;;0.87;0.63;;;;;;;;;;5005725;28;83386;-61
2023/03/24 03:17:03;;;;;;;1.53;0.70;;;;;;;;;;5005364;28;83985;-61
2023/03/24 03:19:33;;;;;;;0.97;0.60;;;;;;;;;;5005483;28;83880;-61
2023/03/24 03:22:01;;;;;;;1.47;0.70;;;;;;;;;;5001491;28;82580;-60
2023/03/24 03:24:30;;;;;;;3.43;0.67;;;;;;;;;;5005726;28;82859;-61
2023/03/24 03:26:59;;;;;;;1.10;0.50;;;;;;;;;;5005746;28;83800;-62
2023/03/24 03:29:29;;;;;;;1.10;0.60;;;;;;;;;;5005309;28;81992;-61
2023/03/24 03:32:04;;;;;;;1.20;0.57;;;;;;;;;;5004347;28;83832;-61
2023/03/24 03:34:35;;;;;;;1.13;0.70;;;;;;;;;;5005495;28;83071;-61
2023/03/24 03:37:05;;;;;;;2.43;0.50;;;;;;;;;;5001583;28;82790;-61
2023/03/24 03:39:37;;;;;;;4.17;0.67;;;;;;;;;;5005468;28;83235;-61
2023/03/24 03:42:06;;;;;;;1.07;0.97;;;;;;;;;;5005162;28;83702;-61
2023/03/24 03:44:34;;;;;;;1.50;0.80;;;;;;;;;;5004448;28;82861;-61
2023/03/24 03:47:04;;;;;;;2.20;0.97;;;;;;;;;;5004184;28;83727;-61
2023/03/24 03:49:32;;;;;;;1.73;0.60;;;;;;;;;;5005639;28;82044;-62
2023/03/24 03:52:01;;;;;;;2.00;0.70;;;;;;;;;;5004443;28;82932;-61
2023/03/24 03:54:29;;;;;;;2.07;0.70;;;;;;;;;;5004472;28;82953;-61
2023/03/24 03:57:00;;;;;;;1.20;0.73;;;;;;;;;;5022827;28;83875;-61
2023/03/24 03:59:28;;;;;;;0.97;0.83;;;;;;;;;;5023656;28;82000;-61
2023/03/24 04:01:59;;;;;;;2.73;0.70;;;;;;;;;;5009238;28;82691;-61
2023/03/24 04:04:42;;;;;;;0.63;0.60;;;;;;;;;;5009573;28;84217;-61
2023/03/24 04:07:18;;;;;;;1.20;0.80;;;;;;;;;;5004481;28;82083;-61
2023/03/24 04:09:48;;;;;;;1.37;1.00;;;;;;;;;;5003500;28;82906;-61
2023/03/24 04:12:29;;;;;;;1.37;0.87;;;;;;;;;;5002068;28;83600;-62
2023/03/24 04:15:16;;;;;;;4.47;1.50;;;;;;;;;;5004599;28;83116;-62
2023/03/24 04:17:51;;;;;;;6.83;1.10;;;;;;;;;;5023558;28;83867;-61
2023/03/24 04:20:23;;;;;;;1.70;1.00;;;;;;;;;;5019975;28;81943;-61
2023/03/24 04:22:55;;;;;;;1.90;1.33;;;;;;;;;;5004511;28;82928;-61
2023/03/24 04:25:27;;;;;;;2.30;1.23;;;;;;;;;;5004526;28;84157;-61
2023/03/24 04:27:59;;;;;;;3.43;1.30;;;;;;;;;;5005191;28;82417;-61
2023/03/24 04:30:29;;;;;;;1.90;1.07;;;;;;;;;;5005092;28;83369;-63
2023/03/24 04:32:59;;;;;;;1.97;1.27;;;;;;;;;;5009225;28;82857;-63
2023/03/24 04:35:34;;;;;;;4.00;0.80;;;;;;;;;;5002841;28;83669;-62
2023/03/24 04:38:03;;;;;;;1.97;1.20;;;;;;;;;;5000785;28;84794;-63
2023/03/24 04:40:32;;;;;;;1.73;1.30;;;;;;;;;;5013636;28;81883;-63
2023/03/24 04:43:02;;;;;;;1.50;1.37;;;;;;;;;;5004557;28;83544;-62
2023/03/24 04:45:32;;;;;;;1.93;1.03;;;;;;;;;;5005426;28;83146;-63
2023/03/24 04:48:01;;;;;;;2.20;1.10;;;;;;;;;;5022505;28;82845;-63
2023/03/24 04:50:33;;;;;;;1.50;1.23;;;;;;;;;;5013884;28;81926;-63
2023/03/24 04:53:02;;;;;;;2.47;1.30;;;;;;;;;;5001500;28;81710;-62
2023/03/24 04:55:52;;;;;;;1.33;0.87;;;;;;;;;;5018993;28;83212;-62
2023/03/24 04:58:21;;;;;;;2.57;1.23;;;;;;;;;;4979070;28;83733;-62
2023/03/24 05:00:49;;;;;;;2.93;1.17;;;;;;;;;;5003053;28;83019;-62
2023/03/24 05:03:19;;;;;;;1.00;0.67;;;;;;;;;;5005402;28;82016;-63
2023/03/24 05:05:49;;;;;;;3.20;1.17;;;;;;;;;;5020489;28;84126;-63
2023/03/24 05:08:18;;;;;;;4.27;1.10;;;;;;;;;;5003865;28;82808;-62
2023/03/24 05:10:51;;;;;;;1.57;0.97;;;;;;;;;;5003400;28;81916;-63
2023/03/24 05:13:24;;;;;;;1.13;1.03;;;;;;;;;;5004225;28;81920;-63
2023/03/24 05:15:53;;;;;;;1.60;1.10;;;;;;;;;;5003698;28;84000;-63
2023/03/24 05:18:21;;;;;;;3.50;1.23;;;;;;;;;;5004035;28;83732;-63
2023/03/24 05:20:52;;;;;;;1.07;0.83;;;;;;;;;;5011069;28;81954;-60
2023/03/24 05:23:20;;;;;;;1.67;0.90;;;;;;;;;;5002229;28;84032;-63
2023/03/24 05:25:49;;;;;;;3.70;1.30;;;;;;;;;;5002859;28;83879;-63
2023/03/24 05:35:07;;;;;;;1.87;1.03;;;;;;;;;;4974282;28;82037;-63
2023/03/24 05:37:36;;;;;;;1.77;1.47;;;;;;;;;;4965073;28;84056;-63
2023/03/24 05:40:05;;;;;;;2.80;1.10;;;;;;;;;;4968297;28;83943;-62
2023/03/24 05:42:34;;;;;;;1.27;0.80;;;;;;;;;;4980087;28;82231;-63
2023/03/24 05:45:02;;;;;;;2.77;0.90;;;;;;;;;;4981866;28;83806;-62
2023/03/24 05:47:30;;;;;;;2.57;0.83;;;;;;;;;;4976125;28;82472;-63
2023/03/24 05:49:59;;;;;;;1.93;1.10;;;;;;;;;;4967752;28;82762;-63
2023/03/24 05:52:27;;;;;;;1.80;0.90;;;;;;;;;;4981420;28;82864;-63
2023/03/24 05:54:57;;;;;;;1.13;0.80;;;;;;;;;;4981027;28;82035;-63
2023/03/24 05:57:29;;;;;;;1.53;0.80;;;;;;;;;;4976152;28;83089;-63
2023/03/24 05:59:57;;;;;;;2.33;0.80;;;;;;;;;;4975907;28;83821;-63
2023/03/24 06:02:25;;;;;;;3.27;0.83;;;;;;;;;;4970002;28;83336;-63
2023/03/24 06:04:56;;;;;;;0.67;0.57;;;;;;;;;;4970892;28;82735;-62
2023/03/24 06:07:25;;;;;;;1.47;0.83;;;;;;;;;;4977597;28;84061;-63
2023/03/24 06:09:56;;;;;;;2.07;0.90;;;;;;;;;;4966535;28;84000;-63
2023/03/24 06:12:26;;;;;;;0.97;0.53;;;;;;;;;;4968894;28;81919;-62
2023/03/24 06:14:55;;;;;;;2.33;1.00;;;;;;;;;;4967474;28;83925;-63
2023/03/24 06:17:23;;;;;;;0.57;0.57;;;;;;;;;;4964881;28;85045;-63
2023/03/24 06:19:51;;;;;;;1.47;0.80;;;;;;;;;;4963770;28;84672;-63
2023/03/24 06:22:20;;;;;;;1.33;0.67;;;;;;;;;;4964343;28;82031;-63
2023/03/24 06:24:48;;;;;;;0.77;0.70;;;;;;;;;;4967049;28;82556;-63
2023/03/24 06:27:20;;;;;;;3.70;0.70;;;;;;;;;;4983146;28;84198;-63
2023/03/24 06:29:50;;;;;;;1.37;0.73;;;;;;;;;;4975524;28;84010;-63
2023/03/24 06:32:19;;;;;;;1.20;0.60;;;;;;;;;;4976183;28;83487;-63
2023/03/24 06:34:47;;;;;;;1.80;1.03;;;;;;;;;;4971772;28;82444;-55
2023/03/24 06:37:15;;;;;;;2.00;1.23;;;;;;;;;;4967040;28;83930;-56
2023/03/24 06:39:44;;;;;;;1.13;1.03;;;;;;;;;;4973087;28;82631;-55
2023/03/24 06:42:13;;;;;;;1.60;0.77;;;;;;;;;;4982014;28;83115;-56
2023/03/24 06:44:42;;;;;;;1.97;0.70;;;;;;;;;;4980071;28;82839;-56
2023/03/24 06:47:11;;;;;;;0.93;0.60;;;;;;;;;;4971581;28;83175;-55
2023/03/24 06:49:40;;;;;;;2.43;0.83;;;;;;;;;;4972488;28;84171;-55
2023/03/24 06:52:09;;;;;;;0.53;0.50;;;;;;;;;;4984663;28;82096;-56
2023/03/24 06:54:37;;;;;;;1.00;0.70;;;;;;;;;;4974229;28;82495;-56
2023/03/24 06:57:08;;;;;;;0.23;0.23;;;;;;;;;;4966664;28;83117;-55
2023/03/24 06:59:36;;;;;;;2.57;0.87;;;;;;;;;;4972127;28;83591;-56
2023/03/24 07:02:04;;;;;;;1.07;0.50;;;;;;;;;;4966558;28;81995;-55
2023/03/24 07:04:35;;;;;;;2.57;0.97;;;;;;;;;;4970159;28;83970;-56
2023/03/24 07:07:03;;;;;;;2.13;0.80;;;;;;;;;;4981826;28;84039;-56
2023/03/24 07:09:52;;;;;;;1.37;0.70;;;;;;;;;;4981146;28;82183;-56
2023/03/24 07:12:20;;;;;;;0.43;0.43;;;;;;;;;;4967533;28;82028;-56
2023/03/24 07:14:48;;;;;;;0.93;0.57;;;;;;;;;;4966623;28;82828;-56
2023/03/24 07:17:16;;;;;;;2.27;1.00;;;;;;;;;;4975743;28;84086;-56
2023/03/24 07:19:46;;;;;;;3.10;0.70;;;;;;;;;;4982535;28;82808;-55
2023/03/24 07:22:14;;;;;;;0.83;0.67;;;;;;;;;;4981952;28;81991;-56
2023/03/24 07:24:43;;;;;;;1.60;0.70;;;;;;;;;;4983134;28;82640;-55
2023/03/24 07:27:11;;;;;;;2.60;0.80;;;;;;;;;;4967891;28;84008;-55
2023/03/24 07:29:39;;;;;;;5.67;0.90;;;;;;;;;;4971134;28;83590;-55
2023/03/24 07:32:08;;;;;;;3.00;0.90;;;;;;;;;;4969065;28;82991;-56
2023/03/24 07:34:38;;;;;;;1.03;0.50;;;;;;;;;;4973216;28;84168;-56
2023/03/24 07:37:07;;;;;;;2.53;0.70;;;;;;;;;;4969328;28;84160;-55
2023/03/24 07:39:36;;;;;;;3.23;0.60;;;;;;;;;;4973700;28;83309;-54
2023/03/24 07:42:05;;;;;;;0.53;0.50;;;;;;;;;;4966291;28;81960;-53
2023/03/24 07:44:33;;;;;;;4.80;0.77;;;;;;;;;;4972247;28;83833;-53
2023/03/24 07:47:01;;;;;;;0.80;0.53;;;;;;;;;;4984977;28;82943;-53
2023/03/24 07:49:30;;;;;;;0.70;0.40;;;;;;;;;;4977361;28;83972;-53
2023/03/24 07:51:58;;;;;;;1.67;0.60;;;;;;;;;;4983530;28;83033;-54
2023/03/24 07:54:28;;;;;;;0.40;0.40;;;;;;;;;;4982472;28;82818;-53
2023/03/24 07:56:56;;;;;;;0.90;0.40;;;;;;;;;;4995812;28;83765;-53
2023/03/24 07:59:25;;;;;;;2.60;1.40;;;;;;;;;;4969085;28;83722;-53
2023/03/24 08:01:55;;;;;;;0.70;0.70;;;;;;;;;;4976261;28;82164;-53
2023/03/24 08:04:27;;;;;;;0.30;0.30;;;;;;;;;;4978859;28;83859;-53
2023/03/24 08:06:56;;;;;;;1.40;0.60;;;;;;;;;;4969438;28;84222;-54
2023/03/24 08:09:24;;;;;;;1.20;0.50;;;;;;;;;;4972723;28;82939;-53
2023/03/24 08:11:54;;;;;;;0.50;0.50;;;;;;;;;;4969867;28;81995;-53
2023/03/24 08:14:22;;;;;;;0.40;0.40;;;;;;;;;;4980871;28;83857;-53
2023/03/24 08:16:53;;;;;;;1.37;0.60;;;;;;;;;;4975781;28;84057;-53
2023/03/24 08:19:22;;;;;;;3.93;0.50;;;;;;;;;;4981481;28;83478;-53
2023/03/24 08:21:50;;;;;;;4.20;0.60;;;;;;;;;;4969865;28;84070;-53
2023/03/24 08:24:19;;;;;;;2.53;0.50;;;;;;;;;;4978383;28;82854;-53
2023/03/24 08:26:47;;;;;;;0.67;0.50;;;;;;;;;;4970279;28;83009;-53
2023/03/24 08:29:17;;;;;;;0.50;0.43;;;;;;;;;;4984528;28;83904;-53
2023/03/24 08:31:45;;;;;;;0.53;0.40;;;;;;;;;;4986335;28;81973;-53
2023/03/24 08:34:14;;;;;;;2.00;0.53;;;;;;;;;;4987882;28;83835;-52
2023/03/24 08:36:42;;;;;;;0.60;0.60;;;;;;;;;;4975445;28;82982;-53
2023/03/24 08:39:11;;;;;;;0.50;0.40;;;;;;;;;;4985727;28;83758;-53
2023/03/24 08:41:39;;;;;;;3.17;1.17;;;;;;;;;;4971787;28;82061;-52
2023/03/24 08:44:10;;;;;;;1.70;0.80;;;;;;;;;;4965760;28;84139;-55
2023/03/24 08:46:40;;;;;;;3.73;0.87;;;;;;;;;;4973077;28;83798;-52
2023/03/24 08:49:08;;;;;;;1.20;0.33;;;;;;;;;;4984506;28;83512;-55
2023/03/24 08:51:36;;;;;;;3.23;1.13;;;;;;;;;;4978706;28;81995;-53
2023/03/24 08:54:05;;;;;;;0.53;0.30;;;;;;;;;;4985056;28;82767;-53
2023/03/24 08:56:33;;;;;;;1.07;0.50;;;;;;;;;;4977218;28;84078;-53
2023/03/24 08:59:03;;;;;;;0.57;0.40;;;;;;;;;;4978269;28;82056;-53
2023/03/24 09:01:32;;;;;;;2.40;0.50;;;;;;;;;;4973363;28;83039;-53
2023/03/24 09:04:02;;;;;;;3.03;0.90;;;;;;;;;;4976099;28;82428;-53
2023/03/24 09:06:31;;;;;;;2.57;0.73;;;;;;;;;;4973439;28;83333;-53
2023/03/24 09:08:59;;;;;;;0.63;0.40;;;;;;;;;;4965433;28;82654;-53
2023/03/24 09:11:28;;;;;;;1.57;0.70;;;;;;;;;;4964907;28;83024;-54
2023/03/24 09:13:56;;;;;;;1.57;0.57;;;;;;;;;;4982909;28;82214;-53
2023/03/24 09:16:25;;;;;;;1.70;0.47;;;;;;;;;;4976473;28;84086;-53
2023/03/24 09:18:53;;;;;;;3.03;0.53;;;;;;;;;;4975225;28;83757;-53
2023/03/24 09:21:23;;;;;;;1.03;0.50;;;;;;;;;;4971248;28;82073;-53
2023/03/24 09:23:51;;;;;;;4.67;0.87;;;;;;;;;;4964790;28;82902;-53
2023/03/24 09:26:21;;;;;;;0.50;0.50;;;;;;;;;;4965243;28;83355;-53
2023/03/24 09:28:50;;;;;;;1.10;0.60;;;;;;;;;;4965542;28;82968;-54
2023/03/24 09:31:18;;;;;;;1.97;0.50;;;;;;;;;;4974910;28;83216;-54
2023/03/24 09:33:46;;;;;;;2.00;0.43;;;;;;;;;;4975485;28;85696;-53
2023/03/24 09:36:15;;;;;;;0.30;0.30;;;;;;;;;;4968700;28;85290;-53
2023/03/24 09:38:44;;;;;;;4.10;0.83;;;;;;;;;;4976343;28;84132;-54
2023/03/24 09:41:15;;;;;;;2.03;0.50;;;;;;;;;;4975507;28;82076;-54
2023/03/24 09:43:44;;;;;;;2.33;0.40;;;;;;;;;;4968944;28;82654;-53
2023/03/24 09:46:14;;;;;;;1.13;0.43;;;;;;;;;;4976757;28;84050;-52
2023/03/24 09:48:43;;;;;;;3.50;0.73;;;;;;;;;;4974815;28;82723;-53
2023/03/24 09:51:12;;;;;;;4.03;0.40;;;;;;;;;;4969484;28;81895;-54
2023/03/24 09:53:42;;;;;;;0.83;0.40;;;;;;;;;;4964913;28;82939;-53
2023/03/24 09:56:14;;;;;;;0.50;0.30;;;;;;;;;;4964474;28;84104;-53
2023/03/24 09:58:42;;;;;;;2.33;0.50;;;;;;;;;;4964350;28;83893;-53
2023/03/24 10:01:14;;;;;;;0.50;0.50;;;;;;;;;;4963777;28;83833;-54
2023/03/24 10:03:43;;;;;;;2.27;0.90;;;;;;;;;;4964275;28;84064;-53
2023/03/24 10:06:12;;;;;;;0.50;0.50;;;;;;;;;;4964187;28;84087;-53
2023/03/24 10:08:42;;;;;;;0.47;0.37;;;;;;;;;;4964714;28;83966;-53
2023/03/24 10:11:12;;;;;;;0.40;0.40;;;;;;;;;;4964451;28;81865;-53
2023/03/24 10:13:44;;;;;;;0.30;0.30;;;;;;;;;;4964323;28;82510;-53
2023/03/24 10:16:14;;;;;;;0.77;0.50;;;;;;;;;;4964706;28;82929;-53
2023/03/24 10:18:43;;;;;;;0.80;0.40;;;;;;;;;;4964935;28;82608;-53
2023/03/24 10:21:13;;;;;;;0.10;0.10;;;;;;;;;;4964529;28;81793;-53
2023/03/24 10:23:43;;;;;;;0.57;0.53;;;;;;;;;;4964719;28;83330;-53
2023/03/24 10:26:15;;;;;;;0.87;0.60;;;;;;;;;;4964109;28;85096;-54
2023/03/24 10:28:46;;;;;;;0.83;0.43;;;;;;;;;;4964312;28;84722;-53
2023/03/24 10:31:14;;;;;;;0.50;0.50;;;;;;;;;;4963657;28;81924;-54
2023/03/24 10:33:43;;;;;;;0.47;0.47;;;;;;;;;;4964197;28;83927;-53
2023/03/24 10:36:13;;;;;;;1.00;0.37;;;;;;;;;;4963662;28;83275;-54
2023/03/24 10:38:42;;;;;;;1.90;1.23;;;;;;;;;;4963997;28;84004;-53
2023/03/24 10:41:13;;;;;;;2.90;0.60;;;;;;;;;;4964362;28;81717;-54
2023/03/24 10:43:41;;;;;;;0.50;0.40;;;;;;;;;;4964763;28;83100;-53
2023/03/24 10:46:11;;;;;;;0.90;0.70;;;;;;;;;;4964259;28;84229;-53
2023/03/24 10:48:44;;;;;;;1.40;0.40;;;;;;;;;;4963799;28;83830;-53
2023/03/24 10:51:14;;;;;;;4.13;0.77;;;;;;;;;;4963752;28;82852;-53
2023/03/24 10:53:42;;;;;;;0.90;0.50;;;;;;;;;;4964425;28;82920;-53
2023/03/24 10:56:14;;;;;;;0.70;0.70;;;;;;;;;;4964221;28;84063;-54
2023/03/24 10:58:43;;;;;;;0.40;0.40;;;;;;;;;;4963992;28;83840;-54
2023/03/24 11:01:20;;;;;;;0.50;0.33;;;;;;;;;;4964084;28;81794;-54
2023/03/24 11:03:49;;;;;;;1.80;0.47;;;;;;;;;;4964197;28;83945;-54
2023/03/24 11:06:17;;;;;;;2.10;0.47;;;;;;;;;;4963114;28;84134;-53
2023/03/24 11:08:46;;;;;;;0.40;0.40;;;;;;;;;;4963431;28;82807;-53
2023/03/24 11:11:15;;;;;;;1.03;0.40;;;;;;;;;;4967144;28;81875;-53
2023/03/24 11:13:43;;;;;;;0.47;0.40;;;;;;;;;;4967058;28;82818;-53
2023/03/24 11:16:12;;;;;;;1.27;0.47;;;;;;;;;;4966527;28;84250;-53
2023/03/24 11:18:56;;;;;;;1.50;0.40;;;;;;;;;;4966824;28;83687;-53
2023/03/24 11:21:25;;;;;;;0.87;0.53;;;;;;;;;;4967112;28;81986;-53
2023/03/24 11:23:53;;;;;;;0.70;0.33;;;;;;;;;;4966916;28;82734;-53
2023/03/24 11:26:22;;;;;;;0.77;0.40;;;;;;;;;;4966829;28;81971;-53
2023/03/24 11:28:52;;;;;;;0.60;0.30;;;;;;;;;;4966388;28;82007;-53
2023/03/24 11:31:24;;;;;;;0.73;0.50;;;;;;;;;;4966384;28;81957;-53
2023/03/24 11:33:56;;;;;;;0.30;0.30;;;;;;;;;;4966795;28;82995;-53
2023/03/24 11:36:41;;;;;;;3.30;0.90;;;;;;;;;;4958176;28;83234;-53
2023/03/24 11:39:16;;;;;;;2.37;0.30;;;;;;;;;;4966775;28;84202;-53
2023/03/24 11:41:44;;;;;;;1.53;0.57;;;;;;;;;;4965797;28;82696;-53
2023/03/24 11:44:17;;;;;;;1.23;0.40;;;;;;;;;;4965992;28;83893;-53
2023/03/24 11:46:46;;;;;;;1.07;0.50;;;;;;;;;;4966858;28;83095;-53
2023/03/24 11:49:14;;;;;;;1.40;0.33;;;;;;;;;;4966757;28;83919;-54
2023/03/24 11:51:44;;;;;;;0.30;0.30;;;;;;;;;;4966046;28;81814;-53
2023/03/24 11:54:13;;;;;;;2.13;0.70;;;;;;;;;;4966170;28;82713;-53
2023/03/24 11:56:42;;;;;;;0.30;0.30;;;;;;;;;;4966242;28;84020;-53
2023/03/24 11:59:14;;;;;;;1.27;0.57;;;;;;;;;;4966447;28;82837;-53
2023/03/24 12:01:43;;;;;;;1.30;0.40;;;;;;;;;;4965751;28;83186;-53
2023/03/24 12:04:16;;;;;;;1.20;0.50;;;;;;;;;;4965685;28;83705;-53
2023/03/24 12:06:50;;;;;;;0.40;0.40;;;;;;;;;;4965470;28;85110;-53
2023/03/24 12:09:21;;;;;;;0.40;0.20;;;;;;;;;;4966234;28;83803;-53
2023/03/24 12:11:52;;;;;;;0.90;0.50;;;;;;;;;;4966285;28;81922;-53
2023/03/24 12:14:23;;;;;;;1.03;0.40;;;;;;;;;;4966277;28;83893;-53
2023/03/24 12:16:53;;;;;;;1.33;0.47;;;;;;;;;;4966047;28;84112;-53
2023/03/24 12:19:36;;;;;;;0.97;0.40;;;;;;;;;;4965776;28;82633;-53
2023/03/24 12:22:09;;;;;;;1.10;0.50;;;;;;;;;;4963950;28;82084;-53
2023/03/24 12:24:42;;;;;;;0.60;0.60;;;;;;;;;;4966747;28;83947;-53
2023/03/24 12:27:13;;;;;;;1.90;0.70;;;;;;;;;;4966228;28;83277;-54
2023/03/24 12:29:44;;;;;;;1.30;0.63;;;;;;;;;;4965816;28;83967;-53
2023/03/24 12:32:15;;;;;;;0.77;0.40;;;;;;;;;;4969737;28;84365;-53
2023/03/24 12:34:59;;;;;;;2.30;0.30;;;;;;;;;;4985406;28;84088;-54
2023/03/24 12:37:30;;;;;;;1.97;0.40;;;;;;;;;;4983132;28;83103;-53
2023/03/24 12:40:00;;;;;;;0.97;0.37;;;;;;;;;;4985202;28;83756;-53
2023/03/24 12:42:28;;;;;;;0.40;0.40;;;;;;;;;;4984772;28;82020;-53
2023/03/24 12:45:00;;;;;;;0.83;0.83;;;;;;;;;;4985310;28;83754;-53
2023/03/24 12:47:49;;;;;;;0.30;0.30;;;;;;;;;;4985149;28;82065;-53
2023/03/24 12:50:20;;;;;;;1.07;0.60;;;;;;;;;;4979561;28;83685;-53
2023/03/24 12:53:00;;;;;;;1.63;0.53;;;;;;;;;;4984681;28;81988;-54
2023/03/24 12:55:32;;;;;;;1.90;0.30;;;;;;;;;;4985161;28;82151;-53
2023/03/24 12:58:01;;;;;;;0.63;0.53;;;;;;;;;;4984094;28;85203;-53
2023/03/24 13:00:31;;;;;;;4.07;0.87;;;;;;;;;;4984124;28;84555;-54
2023/03/24 13:03:00;;;;;;;3.50;0.70;;;;;;;;;;4984709;28;81936;-53
2023/03/24 13:05:30;;;;;;;0.97;0.70;;;;;;;;;;4984675;28;82870;-53
2023/03/24 13:08:01;;;;;;;1.03;0.33;;;;;;;;;;4984823;28;84044;-53
2023/03/24 13:10:30;;;;;;;2.13;0.43;;;;;;;;;;4984715;28;83474;-53
2023/03/24 13:12:59;;;;;;;2.40;0.60;;;;;;;;;;4984669;28;82047;-53
2023/03/24 13:15:29;;;;;;;2.67;0.40;;;;;;;;;;4977143;28;82794;-54
2023/03/24 13:18:01;;;;;;;0.37;0.33;;;;;;;;;;4985309;28;84268;-54
2023/03/24 13:20:30;;;;;;;1.07;0.90;;;;;;;;;;4984415;28;84038;-53
2023/03/24 13:22:59;;;;;;;3.13;1.23;;;;;;;;;;4983929;28;82896;-53
2023/03/24 13:25:30;;;;;;;0.90;0.80;;;;;;;;;;4984848;28;83842;-53
2023/03/24 13:27:59;;;;;;;2.63;0.67;;;;;;;;;;4984691;28;84298;-53
2023/03/24 13:30:30;;;;;;;2.83;1.30;;;;;;;;;;4983876;28;83858;-54
2023/03/24 13:33:00;;;;;;;0.87;0.60;;;;;;;;;;4983318;28;81869;-53
2023/03/24 13:35:32;;;;;;;2.10;0.57;;;;;;;;;;4984190;28;84097;-53
2023/03/24 13:38:03;;;;;;;0.70;0.43;;;;;;;;;;4984696;28;83865;-53
2023/03/24 13:40:32;;;;;;;3.60;0.50;;;;;;;;;;4984759;28;82704;-53
2023/03/24 13:43:00;;;;;;;0.63;0.50;;;;;;;;;;4984303;28;81917;-53
2023/03/24 13:45:33;;;;;;;0.47;0.47;;;;;;;;;;4984267;28;82764;-53
2023/03/24 13:48:06;;;;;;;1.17;0.57;;;;;;;;;;4983426;28;85195;-54
2023/03/24 13:50:35;;;;;;;3.67;0.63;;;;;;;;;;4984318;28;82260;-53
2023/03/24 13:53:07;;;;;;;1.00;0.40;;;;;;;;;;4984062;28;81992;-53
2023/03/24 13:55:36;;;;;;;2.37;0.73;;;;;;;;;;4984369;28;83958;-53
2023/03/24 13:58:09;;;;;;;0.80;0.40;;;;;;;;;;4984673;28;84009;-53
2023/03/24 14:00:52;;;;;;;2.87;0.77;;;;;;;;;;4984146;28;82936;-54
2023/03/24 14:03:31;;;;;;;1.43;0.60;;;;;;;;;;4983965;28;82135;-53
2023/03/24 14:06:00;;;;;;;0.40;0.40;;;;;;;;;;4984812;28;84003;-54
2023/03/24 14:08:42;;;;;;;0.80;0.47;;;;;;;;;;4984184;28;81994;-54
2023/03/24 14:11:26;;;;;;;0.70;0.47;;;;;;;;;;4984314;28;83852;-54
2023/03/24 14:13:54;;;;;;;0.93;0.67;;;;;;;;;;4983705;28;82839;-54
2023/03/24 14:16:36;;;;;;;0.40;0.40;;;;;;;;;;4984240;28;82746;-54
2023/03/24 14:19:18;;;;;;;1.03;0.50;;;;;;;;;;4984387;28;84248;-54
2023/03/24 14:21:52;;;;;;;0.50;0.43;;;;;;;;;;4983958;28;84038;-54
2023/03/24 14:24:23;;;;;;;0.40;0.40;;;;;;;;;;4984284;28;81928;-55
2023/03/24 14:26:51;;;;;;;1.17;0.40;;;;;;;;;;4984274;28;82004;-55
2023/03/24 14:29:39;;;;;;;1.07;0.60;;;;;;;;;;4984223;28;84070;-55
2023/03/24 14:32:07;;;;;;;3.27;0.60;;;;;;;;;;4983491;28;82787;-55
2023/03/24 14:34:53;;;;;;;1.90;0.87;;;;;;;;;;4983429;28;81898;-55
2023/03/24 14:37:22;;;;;;;0.93;0.57;;;;;;;;;;4984125;28;84111;-55
2023/03/24 14:39:52;;;;;;;0.40;0.40;;;;;;;;;;4983708;28;85005;-55
2023/03/24 14:42:44;;;;;;;1.03;0.57;;;;;;;;;;4984505;28;84988;-55
2023/03/24 14:45:27;;;;;;;0.40;0.40;;;;;;;;;;4985377;28;82026;-55
2023/03/24 14:47:58;;;;;;;1.40;0.70;;;;;;;;;;4986859;28;83950;-55
2023/03/24 14:50:27;;;;;;;0.67;0.60;;;;;;;;;;4987502;28;83085;-55
2023/03/24 14:52:55;;;;;;;2.07;0.47;;;;;;;;;;4987538;28;83722;-55
2023/03/24 14:55:25;;;;;;;2.10;0.67;;;;;;;;;;4987358;28;81940;-55
2023/03/24 14:57:55;;;;;;;1.70;0.40;;;;;;;;;;4987620;28;82985;-55
2023/03/24 15:00:23;;;;;;;0.33;0.33;;;;;;;;;;4986862;28;84061;-55
2023/03/24 15:02:53;;;;;;;2.07;0.57;;;;;;;;;;4987771;28;83780;-55
2023/03/24 15:05:23;;;;;;;0.40;0.40;;;;;;;;;;4987209;28;82808;-55
2023/03/24 15:08:07;;;;;;;3.83;0.60;;;;;;;;;;4987001;28;84047;-55
2023/03/24 15:10:40;;;;;;;1.23;0.60;;;;;;;;;;4987202;28;84054;-55